Time;durP1;ratioP1;P1;durP2;ratioP2;P2;SDS_P1;SDS_P2;PMS_P1;PMS_P2;Temp;Humidity;BMP_temperature;BMP_pressure;BME280_temperature;BME280_humidity;BME280_pressure;Samples;Min_cycle;Max_cycle;Signal;HPM_P1;HPM_P2
2023/11/20 00:02:16;;;;;;;3.53;1.90;;;11.10;99.90;;;;;;5030861;28;20420;-67
2023/11/20 00:04:42;;;;;;;4.53;2.13;;;11.10;99.90;;;;;;5029852;28;20186;-67
2023/11/20 00:07:07;;;;;;;3.27;1.70;;;11.20;99.90;;;;;;5031466;28;20783;-67
2023/11/20 00:09:33;;;;;;;8.47;2.00;;;11.20;99.90;;;;;;5029752;28;20177;-67
2023/11/20 00:11:59;;;;;;;6.60;2.27;;;11.10;99.90;;;;;;5030333;28;20218;-68
2023/11/20 00:14:25;;;;;;;7.67;2.83;;;11.10;99.90;;;;;;5029039;28;20934;-67
2023/11/20 00:16:52;;;;;;;8.00;2.20;;;11.10;99.90;;;;;;5030772;28;20539;-68
2023/11/20 00:19:18;;;;;;;4.10;2.23;;;11.20;99.90;;;;;;5030422;28;20611;-67
2023/11/20 00:21:44;;;;;;;5.90;2.43;;;11.20;99.90;;;;;;5030300;28;21220;-67
2023/11/20 00:24:10;;;;;;;3.77;1.87;;;11.20;99.90;;;;;;5028520;28;20420;-67
2023/11/20 00:26:37;;;;;;;6.10;2.27;;;11.20;99.90;;;;;;5029449;28;20462;-67
2023/11/20 00:29:04;;;;;;;5.40;2.07;;;11.20;99.90;;;;;;5030448;28;21204;-67
2023/11/20 00:31:30;;;;;;;8.50;2.63;;;11.20;99.90;;;;;;5029617;28;20439;-67
2023/11/20 00:33:56;;;;;;;5.00;2.50;;;11.20;99.90;;;;;;5030623;28;20459;-67
2023/11/20 00:36:22;;;;;;;7.70;2.30;;;11.20;99.90;;;;;;5031054;28;20862;-67
2023/11/20 00:38:48;;;;;;;9.33;2.90;;;11.30;99.90;;;;;;5030664;28;20200;-67
2023/11/20 00:41:14;;;;;;;7.20;2.23;;;11.20;99.90;;;;;;5045101;28;20602;-68
2023/11/20 00:43:40;;;;;;;6.93;2.53;;;11.20;99.90;;;;;;5044355;28;20421;-67
2023/11/20 00:46:06;;;;;;;9.10;2.93;;;11.30;99.90;;;;;;5029494;28;20640;-67
2023/11/20 00:48:32;;;;;;;6.37;2.47;;;11.30;99.90;;;;;;5029714;28;20181;-68
2023/11/20 00:50:58;;;;;;;7.43;2.23;;;11.30;99.90;;;;;;5030877;28;20495;-67
2023/11/20 00:53:24;;;;;;;7.13;2.60;;;11.30;99.90;;;;;;5029611;28;20288;-67
2023/11/20 00:55:50;;;;;;;6.10;2.40;;;11.30;99.90;;;;;;5050519;28;20276;-68
2023/11/20 00:58:16;;;;;;;9.97;2.70;;;11.20;99.90;;;;;;5029719;28;20937;-67
2023/11/20 01:00:42;;;;;;;5.47;2.30;;;11.20;99.90;;;;;;5029676;28;20437;-68
2023/11/20 01:03:08;;;;;;;8.17;2.37;;;11.20;99.90;;;;;;5029581;28;20748;-67
2023/11/20 01:05:33;;;;;;;6.57;2.77;;;11.10;99.90;;;;;;5029708;28;20199;-67
2023/11/20 01:07:59;;;;;;;10.50;2.50;;;11.20;99.90;;;;;;5030184;28;20208;-68
2023/11/20 01:10:25;;;;;;;5.37;2.30;;;11.30;99.90;;;;;;5028756;28;20281;-67
2023/11/20 01:12:51;;;;;;;7.67;2.50;;;11.30;99.90;;;;;;5029418;28;20333;-68
2023/11/20 01:15:16;;;;;;;7.03;2.30;;;11.30;99.90;;;;;;5028740;28;20188;-67
2023/11/20 01:17:42;;;;;;;8.80;3.00;;;11.40;99.90;;;;;;5028087;28;20467;-67
2023/11/20 01:20:10;;;;;;;6.37;2.30;;;11.40;99.90;;;;;;5029043;28;20607;-68
2023/11/20 01:22:36;;;;;;;6.93;2.40;;;11.30;99.90;;;;;;5029206;28;20220;-67
2023/11/20 01:25:03;;;;;;;7.20;2.70;;;11.30;99.90;;;;;;5028832;28;20519;-67
2023/11/20 01:27:29;;;;;;;5.30;1.93;;;11.30;99.90;;;;;;5029330;28;20183;-67
2023/11/20 01:29:54;;;;;;;5.90;2.10;;;11.30;99.90;;;;;;5029634;28;20950;-67
2023/11/20 01:32:20;;;;;;;5.60;2.20;;;11.30;99.90;;;;;;5029063;28;20658;-67
2023/11/20 01:34:46;;;;;;;12.37;2.70;;;11.20;99.90;;;;;;5033794;28;20181;-67
2023/11/20 01:37:12;;;;;;;7.17;2.40;;;11.20;99.90;;;;;;5028952;28;20269;-67
2023/11/20 01:39:38;;;;;;;4.63;2.77;;;11.20;99.90;;;;;;5029410;28;20178;-67
2023/11/20 01:42:04;;;;;;;4.97;1.93;;;11.20;99.90;;;;;;5029264;28;20479;-68
2023/11/20 01:44:30;;;;;;;13.70;3.20;;;11.20;99.90;;;;;;5028117;28;20459;-67
2023/11/20 01:46:57;;;;;;;5.20;2.40;;;11.20;99.90;;;;;;5034415;28;20526;-67
2023/11/20 01:49:24;;;;;;;9.00;2.43;;;11.20;99.90;;;;;;5028810;28;20290;-67
2023/11/20 01:51:49;;;;;;;5.47;1.97;;;11.20;99.90;;;;;;5029554;28;20475;-67
2023/11/20 01:54:18;;;;;;;7.67;2.30;;;11.20;99.90;;;;;;5027358;28;20930;-67
2023/11/20 01:56:45;;;;;;;3.80;2.43;;;11.20;99.90;;;;;;5029049;28;20190;-67
2023/11/20 01:59:11;;;;;;;5.30;1.70;;;11.20;99.90;;;;;;5028552;28;20460;-67
2023/11/20 02:01:37;;;;;;;3.87;2.00;;;11.20;99.90;;;;;;5028667;28;20425;-67
2023/11/20 02:04:04;;;;;;;3.70;1.50;;;11.10;99.90;;;;;;5028668;28;20436;-67
2023/11/20 02:06:30;;;;;;;6.77;3.30;;;11.20;99.90;;;;;;5028631;28;20258;-67
2023/11/20 02:08:56;;;;;;;6.33;1.93;;;11.20;99.90;;;;;;5030088;28;20443;-67
2023/11/20 02:11:23;;;;;;;5.73;1.90;;;11.20;99.90;;;;;;5027951;28;20424;-67
2023/11/20 02:13:52;;;;;;;3.20;1.33;;;11.30;99.90;;;;;;5027850;28;20429;-68
2023/11/20 02:16:18;;;;;;;3.27;1.60;;;11.20;99.90;;;;;;5028454;28;20520;-67
2023/11/20 02:18:43;;;;;;;5.17;1.80;;;11.20;99.90;;;;;;5027742;28;20472;-67
2023/11/20 02:21:09;;;;;;;3.00;1.50;;;11.20;99.90;;;;;;5028443;28;20578;-67
2023/11/20 02:23:35;;;;;;;5.30;2.00;;;11.20;99.90;;;;;;5028235;28;20640;-67
2023/11/20 02:26:03;;;;;;;5.07;1.70;;;11.20;99.90;;;;;;5029109;28;20697;-67
2023/11/20 02:28:37;;;;;;;4.13;1.80;;;11.20;99.90;;;;;;5028226;28;20352;-67
2023/11/20 02:31:04;;;;;;;7.67;2.40;;;11.30;99.90;;;;;;5029061;28;20427;-67
2023/11/20 02:33:37;;;;;;;6.10;1.83;;;11.20;99.90;;;;;;5032783;28;20468;-67
2023/11/20 02:36:04;;;;;;;5.73;2.43;;;11.30;99.90;;;;;;5029439;28;20918;-67
2023/11/20 02:38:31;;;;;;;6.23;2.10;;;11.20;99.90;;;;;;5028174;28;20424;-67
2023/11/20 02:40:58;;;;;;;5.13;1.80;;;11.20;99.90;;;;;;5028980;28;20793;-67
2023/11/20 02:43:26;;;;;;;6.53;2.10;;;11.20;99.90;;;;;;5028156;28;20860;-68
2023/11/20 02:45:53;;;;;;;6.07;2.17;;;11.20;99.90;;;;;;5018794;28;20443;-67
2023/11/20 02:48:23;;;;;;;5.17;2.10;;;11.20;99.90;;;;;;5026887;28;20421;-67
2023/11/20 02:50:49;;;;;;;9.53;2.40;;;11.20;99.90;;;;;;5027930;28;20442;-67
2023/11/20 02:53:15;;;;;;;3.57;1.90;;;11.30;99.90;;;;;;5028224;28;21280;-67
2023/11/20 02:55:41;;;;;;;5.23;1.60;;;11.20;99.90;;;;;;5041592;28;20202;-67
2023/11/20 02:58:07;;;;;;;12.00;2.97;;;11.20;99.90;;;;;;5027430;28;21013;-67
2023/11/20 03:00:32;;;;;;;7.40;2.30;;;11.20;99.90;;;;;;5027941;28;20812;-68
2023/11/20 03:02:58;;;;;;;7.00;2.47;;;11.20;99.90;;;;;;5028121;28;20193;-67
2023/11/20 03:05:24;;;;;;;5.90;2.43;;;11.30;99.90;;;;;;5031091;28;20740;-68
2023/11/20 03:07:50;;;;;;;7.83;2.37;;;11.30;99.90;;;;;;5031962;28;20181;-67
2023/11/20 03:10:17;;;;;;;7.50;2.37;;;11.30;99.90;;;;;;5047814;28;20214;-67
2023/11/20 03:12:43;;;;;;;8.33;2.00;;;11.20;99.90;;;;;;5053268;28;20664;-67
2023/11/20 03:15:09;;;;;;;7.60;2.20;;;11.10;99.90;;;;;;5030500;28;20610;-67
2023/11/20 03:17:34;;;;;;;6.27;2.33;;;11.10;99.90;;;;;;5031520;28;20269;-67
2023/11/20 03:20:00;;;;;;;8.20;2.47;;;11.10;99.90;;;;;;5032065;28;20432;-67
2023/11/20 03:22:25;;;;;;;7.53;2.40;;;11.20;99.90;;;;;;5031671;28;20701;-67
2023/11/20 03:24:52;;;;;;;5.20;2.03;;;11.20;99.90;;;;;;5031374;28;20257;-67
2023/11/20 03:27:18;;;;;;;5.73;2.37;;;11.20;99.90;;;;;;5031631;28;20583;-67
2023/11/20 03:29:44;;;;;;;6.80;2.57;;;11.20;99.90;;;;;;5032006;28;20491;-67
2023/11/20 03:32:09;;;;;;;5.57;2.43;;;11.20;99.90;;;;;;5031817;28;20550;-67
2023/11/20 03:34:36;;;;;;;6.47;2.30;;;11.20;99.90;;;;;;5030181;28;20453;-67
2023/11/20 03:37:01;;;;;;;10.03;2.77;;;11.20;99.90;;;;;;5031355;28;20206;-67
2023/11/20 03:39:28;;;;;;;9.57;2.70;;;11.10;99.90;;;;;;5030748;28;20771;-67
2023/11/20 03:41:53;;;;;;;7.30;2.97;;;11.10;99.90;;;;;;5031338;28;20191;-68
2023/11/20 03:44:19;;;;;;;8.23;3.20;;;11.10;99.90;;;;;;5030169;28;20494;-67
2023/11/20 03:46:45;;;;;;;8.67;3.10;;;11.10;99.90;;;;;;5030679;28;20445;-68
2023/11/20 03:49:10;;;;;;;7.90;2.80;;;11.10;99.90;;;;;;5031715;28;20178;-67
2023/11/20 03:51:36;;;;;;;8.60;3.80;;;11.10;99.90;;;;;;5031196;28;20188;-67
2023/11/20 03:54:02;;;;;;;7.43;3.00;;;11.00;99.90;;;;;;5030713;28;20700;-67
2023/11/20 03:56:27;;;;;;;12.30;3.57;;;11.00;99.90;;;;;;5031027;28;20194;-67
2023/11/20 03:58:54;;;;;;;9.90;3.80;;;11.00;99.90;;;;;;5031580;28;20432;-66
2023/11/20 04:01:19;;;;;;;9.17;3.27;;;11.00;99.90;;;;;;5031264;28;20290;-67
2023/11/20 04:03:46;;;;;;;15.00;3.70;;;11.00;99.90;;;;;;5034550;28;20864;-69
2023/11/20 04:06:11;;;;;;;7.07;3.00;;;10.90;99.90;;;;;;5031323;28;20174;-67
2023/11/20 04:08:37;;;;;;;11.27;2.67;;;11.00;99.90;;;;;;5030609;28;20428;-67
2023/11/20 04:11:04;;;;;;;8.30;3.27;;;11.00;99.90;;;;;;5032147;28;20271;-67
2023/11/20 04:13:30;;;;;;;7.70;2.83;;;11.00;99.90;;;;;;5029171;28;20217;-66
2023/11/20 04:15:57;;;;;;;8.60;2.67;;;11.00;99.90;;;;;;5030179;28;20426;-67
2023/11/20 04:18:23;;;;;;;7.63;2.53;;;11.10;99.90;;;;;;5030079;28;20812;-66
2023/11/20 04:20:49;;;;;;;7.87;2.50;;;11.10;99.90;;;;;;5030135;28;20428;-67
2023/11/20 04:23:15;;;;;;;5.63;2.53;;;11.00;99.90;;;;;;5051466;28;20428;-67
2023/11/20 04:25:42;;;;;;;7.27;2.30;;;11.00;99.90;;;;;;5029716;28;20194;-67
2023/11/20 04:28:07;;;;;;;8.07;2.40;;;11.00;99.90;;;;;;5031303;28;20836;-67
2023/11/20 04:30:33;;;;;;;11.17;2.40;;;11.00;99.90;;;;;;5028770;28;20420;-67
2023/11/20 04:32:59;;;;;;;8.93;2.67;;;11.00;99.90;;;;;;5031481;28;20213;-66
2023/11/20 04:35:24;;;;;;;10.63;3.20;;;11.00;99.90;;;;;;5029759;28;20185;-66
2023/11/20 04:37:51;;;;;;;8.67;2.90;;;11.10;99.90;;;;;;5030933;28;20671;-66
2023/11/20 04:40:17;;;;;;;6.63;3.07;;;11.10;99.90;;;;;;5029787;28;20206;-66
2023/11/20 04:42:44;;;;;;;9.73;3.00;;;11.10;99.90;;;;;;5030062;28;20431;-67
2023/11/20 04:45:10;;;;;;;4.07;2.70;;;11.00;99.90;;;;;;5029137;28;20190;-66
2023/11/20 04:47:36;;;;;;;9.13;2.40;;;11.00;99.90;;;;;;5029900;28;20424;-67
2023/11/20 04:50:02;;;;;;;12.20;2.80;;;11.00;99.90;;;;;;5030784;28;20498;-67
2023/11/20 04:52:27;;;;;;;8.70;3.10;;;11.00;99.90;;;;;;5027553;28;20465;-68
2023/11/20 04:54:55;;;;;;;11.20;2.97;;;11.00;99.90;;;;;;5030235;28;20439;-67
2023/11/20 04:57:21;;;;;;;6.00;2.27;;;10.90;99.90;;;;;;5029857;28;20182;-66
2023/11/20 04:59:47;;;;;;;8.37;2.23;;;11.00;99.90;;;;;;5030122;28;20763;-67
2023/11/20 05:02:13;;;;;;;10.13;2.40;;;11.10;99.90;;;;;;5029768;28;20443;-67
2023/11/20 05:04:39;;;;;;;5.30;2.10;;;11.10;99.90;;;;;;5028702;28;20417;-66
2023/11/20 05:07:04;;;;;;;6.70;2.93;;;11.00;99.90;;;;;;5029307;28;20428;-67
2023/11/20 05:09:30;;;;;;;9.70;2.83;;;10.90;99.90;;;;;;5029533;28;20186;-66
2023/11/20 05:11:57;;;;;;;6.30;2.40;;;10.90;99.90;;;;;;5030225;28;20210;-67
2023/11/20 05:14:23;;;;;;;4.83;1.70;;;11.00;99.90;;;;;;5028871;28;20260;-66
2023/11/20 05:16:49;;;;;;;3.77;1.87;;;11.00;99.90;;;;;;5030279;28;20472;-67
2023/11/20 05:19:15;;;;;;;5.33;2.13;;;10.90;99.90;;;;;;5029955;28;20918;-67
2023/11/20 05:21:44;;;;;;;4.50;2.60;;;10.90;99.90;;;;;;5029076;28;20469;-66
2023/11/20 05:24:11;;;;;;;4.87;1.90;;;11.00;99.90;;;;;;5029262;28;20915;-66
2023/11/20 05:26:37;;;;;;;6.80;2.33;;;11.00;99.90;;;;;;5029040;28;20565;-67
2023/11/20 05:29:05;;;;;;;5.63;2.43;;;10.90;99.90;;;;;;5031224;28;20433;-67
2023/11/20 05:31:31;;;;;;;5.03;2.80;;;11.00;99.90;;;;;;5029027;28;20654;-67
2023/11/20 05:33:57;;;;;;;4.50;2.87;;;11.00;99.90;;;;;;5028994;28;20437;-66
2023/11/20 05:36:22;;;;;;;5.00;2.40;;;11.00;99.90;;;;;;5028612;28;20793;-66
2023/11/20 05:38:48;;;;;;;5.20;2.40;;;11.10;99.90;;;;;;5029716;28;20201;-67
2023/11/20 05:41:14;;;;;;;6.10;3.30;;;11.00;99.90;;;;;;5029401;28;20205;-67
2023/11/20 05:43:40;;;;;;;3.30;2.07;;;11.10;99.90;;;;;;5028558;28;20194;-67
2023/11/20 05:46:06;;;;;;;5.43;2.93;;;11.10;99.90;;;;;;5029869;28;20226;-66
2023/11/20 05:48:31;;;;;;;4.13;2.27;;;11.10;99.90;;;;;;5030138;28;20575;-67
2023/11/20 05:50:58;;;;;;;5.93;2.23;;;11.10;99.90;;;;;;5029022;28;20498;-66
2023/11/20 05:53:23;;;;;;;5.50;2.97;;;11.10;99.90;;;;;;5027878;28;20477;-67
2023/11/20 05:55:49;;;;;;;7.43;2.60;;;11.10;99.90;;;;;;5028188;28;20451;-67
2023/11/20 05:58:15;;;;;;;4.93;2.20;;;11.20;99.90;;;;;;5029634;28;20269;-66
2023/11/20 06:00:41;;;;;;;6.10;2.67;;;11.20;99.90;;;;;;5028356;28;20547;-66
2023/11/20 06:03:07;;;;;;;5.63;2.30;;;11.10;99.90;;;;;;5028935;28;20440;-67
2023/11/20 06:05:33;;;;;;;8.10;3.07;;;11.10;99.90;;;;;;5028012;28;21258;-67
2023/11/20 06:07:58;;;;;;;4.47;2.40;;;11.10;99.90;;;;;;5029629;28;20186;-67
2023/11/20 06:10:24;;;;;;;9.03;2.60;;;11.10;99.90;;;;;;5028929;28;20424;-67
2023/11/20 06:12:51;;;;;;;5.00;2.50;;;11.10;99.90;;;;;;5028457;28;20209;-67
2023/11/20 06:15:17;;;;;;;6.60;2.40;;;11.10;99.90;;;;;;5028412;28;20182;-67
2023/11/20 06:17:44;;;;;;;6.57;2.87;;;11.10;99.90;;;;;;5041783;28;20428;-67
2023/11/20 06:20:10;;;;;;;7.67;3.60;;;11.10;99.90;;;;;;5027805;28;20428;-68
2023/11/20 06:22:36;;;;;;;9.83;2.90;;;11.10;99.90;;;;;;5027953;28;21025;-67
2023/11/20 06:25:05;;;;;;;5.00;2.77;;;11.00;99.90;;;;;;5026871;28;20606;-66
2023/11/20 06:27:31;;;;;;;7.30;3.87;;;11.00;99.90;;;;;;5032445;28;20433;-68
2023/11/20 06:29:57;;;;;;;4.90;3.73;;;11.00;99.90;;;;;;5030196;28;20461;-67
2023/11/20 06:32:23;;;;;;;9.07;3.50;;;11.00;99.90;;;;;;5028928;28;20392;-67
2023/11/20 06:34:49;;;;;;;13.60;3.93;;;11.00;99.90;;;;;;5027513;28;20182;-66
2023/11/20 06:37:16;;;;;;;5.20;3.53;;;11.00;99.90;;;;;;5028503;28;20924;-66
2023/11/20 06:39:42;;;;;;;9.77;4.00;;;10.90;99.90;;;;;;5030880;28;20197;-67
2023/11/20 06:42:08;;;;;;;5.80;3.27;;;11.00;99.90;;;;;;5032899;28;20455;-67
2023/11/20 06:44:38;;;;;;;5.70;3.60;;;11.00;99.90;;;;;;5031574;28;20420;-67
2023/11/20 06:47:04;;;;;;;11.37;4.70;;;10.90;99.90;;;;;;5054629;28;20433;-67
2023/11/20 06:49:30;;;;;;;8.40;3.30;;;11.00;99.90;;;;;;5036381;28;20990;-67
2023/11/20 06:51:55;;;;;;;6.13;4.00;;;11.00;99.90;;;;;;5019872;28;20475;-67
2023/11/20 06:54:21;;;;;;;7.10;4.07;;;11.00;99.90;;;;;;5031162;28;20175;-67
2023/11/20 06:56:47;;;;;;;10.43;3.93;;;11.00;99.90;;;;;;5033179;28;20193;-67
2023/11/20 06:59:12;;;;;;;15.37;4.60;;;10.90;99.90;;;;;;5031607;28;20551;-66
2023/11/20 07:01:45;;;;;;;12.20;4.57;;;10.90;99.90;;;;;;5030466;28;20183;-67
2023/11/20 07:04:11;;;;;;;13.67;4.63;;;10.90;99.90;;;;;;5031501;28;20187;-67
2023/11/20 07:06:42;;;;;;;8.57;4.10;;;11.00;99.90;;;;;;5033115;28;20439;-67
2023/11/20 07:09:12;;;;;;;9.40;4.17;;;11.00;99.90;;;;;;5032122;28;20433;-66
2023/11/20 07:11:38;;;;;;;5.33;3.50;;;11.00;99.90;;;;;;5030642;28;20448;-66
2023/11/20 07:14:04;;;;;;;8.00;3.40;;;11.00;99.90;;;;;;5031592;28;20553;-67
2023/11/20 07:16:29;;;;;;;11.93;3.87;;;11.10;99.90;;;;;;5044096;28;20801;-67
2023/11/20 07:18:55;;;;;;;11.50;4.10;;;11.00;99.90;;;;;;5031258;28;20194;-67
2023/11/20 07:21:21;;;;;;;8.30;3.60;;;11.00;99.90;;;;;;5029664;28;20178;-66
2023/11/20 07:23:46;;;;;;;6.93;3.60;;;10.90;99.90;;;;;;5030096;28;20186;-67
2023/11/20 07:26:18;;;;;;;12.50;3.33;;;10.90;99.90;;;;;;5030184;28;20688;-67
2023/11/20 07:28:46;;;;;;;8.43;3.17;;;10.90;99.90;;;;;;5032439;28;20755;-67
2023/11/20 07:31:12;;;;;;;8.03;3.57;;;10.80;99.90;;;;;;5027430;28;20432;-66
2023/11/20 07:33:39;;;;;;;15.03;4.40;;;10.80;99.90;;;;;;5043804;28;21166;-66
2023/11/20 07:36:05;;;;;;;8.40;3.40;;;10.80;99.90;;;;;;5031131;28;20429;-66
2023/11/20 07:38:30;;;;;;;17.93;4.20;;;10.80;99.90;;;;;;5029479;28;20467;-67
2023/11/20 07:40:56;;;;;;;8.83;3.20;;;10.80;99.90;;;;;;5029687;28;20464;-68
2023/11/20 07:43:23;;;;;;;13.93;3.57;;;10.80;99.90;;;;;;5028647;28;20217;-68
2023/11/20 07:45:48;;;;;;;8.37;3.70;;;10.80;99.90;;;;;;5030613;28;20281;-67
2023/11/20 07:48:14;;;;;;;12.00;4.17;;;10.80;99.90;;;;;;5031063;28;21078;-67
2023/11/20 07:50:40;;;;;;;8.60;3.70;;;10.80;99.90;;;;;;5042847;28;20178;-68
2023/11/20 07:53:06;;;;;;;12.33;4.03;;;10.90;99.90;;;;;;5030071;28;20578;-67
2023/11/20 07:55:31;;;;;;;8.43;3.50;;;10.90;99.90;;;;;;5029426;28;20267;-68
2023/11/20 07:57:58;;;;;;;10.17;3.87;;;10.90;99.90;;;;;;5031639;28;20257;-68
2023/11/20 08:00:24;;;;;;;13.80;3.87;;;10.90;99.90;;;;;;5029570;28;20978;-68
2023/11/20 08:02:50;;;;;;;7.90;3.57;;;11.00;99.90;;;;;;5030507;28;20750;-68
2023/11/20 08:05:18;;;;;;;9.67;3.40;;;10.90;99.90;;;;;;5029649;28;20186;-68
2023/11/20 08:07:45;;;;;;;8.70;3.37;;;10.90;99.90;;;;;;5030766;28;20206;-68
2023/11/20 08:10:11;;;;;;;12.33;3.87;;;10.90;99.90;;;;;;5035078;28;20612;-68
2023/11/20 08:12:36;;;;;;;20.37;4.37;;;10.90;99.90;;;;;;5045843;28;20477;-68
2023/11/20 08:15:05;;;;;;;11.20;4.80;;;10.90;99.90;;;;;;5030896;28;20244;-68
2023/11/20 08:17:31;;;;;;;16.57;4.60;;;10.90;99.90;;;;;;5029604;28;20539;-68
2023/11/20 08:19:56;;;;;;;12.57;3.40;;;10.90;99.90;;;;;;5030746;28;20438;-68
2023/11/20 08:22:22;;;;;;;11.33;3.57;;;11.00;99.90;;;;;;5028952;28;20277;-68
2023/11/20 08:24:48;;;;;;;10.10;3.20;;;11.00;99.90;;;;;;5029741;28;20220;-67
2023/11/20 08:27:14;;;;;;;16.37;3.80;;;11.00;99.90;;;;;;5030882;28;20420;-67
2023/11/20 08:29:40;;;;;;;5.90;3.47;;;10.90;99.90;;;;;;5033490;28;20186;-68
2023/11/20 08:32:06;;;;;;;11.70;3.73;;;11.00;99.90;;;;;;5033122;28;20841;-68
2023/11/20 08:34:31;;;;;;;14.03;3.40;;;11.10;99.90;;;;;;5031502;28;20228;-68
2023/11/20 08:36:57;;;;;;;13.83;3.33;;;11.20;99.90;;;;;;5032786;28;20864;-68
2023/11/20 08:39:31;;;;;;;11.57;4.10;;;11.20;99.90;;;;;;5031574;28;20265;-68
2023/11/20 08:41:58;;;;;;;11.70;3.93;;;11.30;99.90;;;;;;5033549;28;20869;-68
2023/11/20 08:44:24;;;;;;;10.10;3.47;;;11.50;99.90;;;;;;5031165;28;20422;-67
2023/11/20 08:46:49;;;;;;;11.30;3.90;;;11.60;99.90;;;;;;5029127;28;20447;-68
2023/11/20 08:49:15;;;;;;;13.23;3.83;;;11.70;99.90;;;;;;5029470;28;20262;-69
2023/11/20 08:51:41;;;;;;;8.50;2.63;;;11.90;99.90;;;;;;5029478;28;20186;-67
2023/11/20 08:54:06;;;;;;;8.97;3.37;;;12.00;99.90;;;;;;5029269;28;20189;-67
2023/11/20 08:56:32;;;;;;;6.20;3.40;;;12.10;99.90;;;;;;5029255;28;20727;-68
2023/11/20 08:58:58;;;;;;;10.63;3.83;;;12.00;99.90;;;;;;5031063;28;20194;-67
2023/11/20 09:01:34;;;;;;;7.60;3.53;;;12.00;99.90;;;;;;5028609;28;20178;-68
2023/11/20 09:04:00;;;;;;;10.10;3.50;;;12.00;99.90;;;;;;5030062;28;20540;-68
2023/11/20 09:06:26;;;;;;;11.27;3.40;;;12.10;99.90;;;;;;5033217;28;20426;-68
2023/11/20 09:08:52;;;;;;;14.40;4.23;;;12.20;99.90;;;;;;5030204;28;20523;-68
2023/11/20 09:11:18;;;;;;;10.80;3.93;;;12.10;99.90;;;;;;5028348;28;20472;-69
2023/11/20 09:13:44;;;;;;;9.43;3.37;;;12.20;99.90;;;;;;5029141;28;20553;-68
2023/11/20 09:16:09;;;;;;;12.30;4.60;;;12.20;99.90;;;;;;5028389;28;20184;-68
2023/11/20 09:18:35;;;;;;;15.20;3.77;;;12.30;99.90;;;;;;5029181;28;20189;-68
2023/11/20 09:21:04;;;;;;;12.53;3.70;;;12.40;99.90;;;;;;5030534;28;20213;-68
2023/11/20 09:23:30;;;;;;;9.40;3.70;;;12.50;99.90;;;;;;5028319;28;20197;-67
2023/11/20 09:25:56;;;;;;;12.53;2.73;;;12.50;99.90;;;;;;5029875;28;20435;-68
2023/11/20 09:28:23;;;;;;;9.90;3.73;;;12.50;99.90;;;;;;5029153;28;20437;-68
2023/11/20 09:30:49;;;;;;;9.70;2.70;;;12.30;99.90;;;;;;5029313;28;20622;-68
2023/11/20 09:33:14;;;;;;;9.10;2.47;;;12.20;99.90;;;;;;5028038;28;20472;-67
2023/11/20 09:35:40;;;;;;;11.10;2.90;;;12.10;99.90;;;;;;5029443;28;20429;-68
2023/11/20 09:38:06;;;;;;;11.90;3.47;;;12.20;99.90;;;;;;5051909;28;20525;-68
2023/11/20 09:40:32;;;;;;;8.63;3.03;;;12.20;99.90;;;;;;5028795;28;20440;-67
2023/11/20 09:42:59;;;;;;;4.90;2.97;;;12.20;99.90;;;;;;5029012;28;20448;-68
2023/11/20 09:45:29;;;;;;;10.70;3.60;;;12.20;99.90;;;;;;5032315;28;20432;-68
2023/11/20 09:47:56;;;;;;;7.83;2.80;;;12.10;99.90;;;;;;5029333;28;20490;-68
2023/11/20 09:50:29;;;;;;;6.10;2.63;;;12.10;99.90;;;;;;5028499;28;20714;-68
2023/11/20 09:52:55;;;;;;;9.10;2.80;;;12.00;99.90;;;;;;5028508;28;20477;-68
2023/11/20 09:55:22;;;;;;;11.43;3.03;;;12.00;99.90;;;;;;5028256;28;20753;-68
2023/11/20 09:57:49;;;;;;;4.70;2.33;;;12.00;99.90;;;;;;5029220;28;20602;-68
2023/11/20 10:00:17;;;;;;;10.17;3.00;;;12.00;99.90;;;;;;5027368;28;20428;-68
2023/11/20 10:02:47;;;;;;;8.70;2.73;;;12.00;99.90;;;;;;5028761;28;20544;-68
2023/11/20 10:05:22;;;;;;;8.03;2.80;;;12.20;99.90;;;;;;5026731;28;20543;-68
2023/11/20 10:07:51;;;;;;;10.47;2.97;;;12.20;99.90;;;;;;5029969;28;20486;-68
2023/11/20 10:10:17;;;;;;;9.60;3.10;;;12.20;99.90;;;;;;5028535;28;20444;-68
2023/11/20 10:12:49;;;;;;;11.20;3.10;;;12.10;99.90;;;;;;5029205;28;20464;-68
2023/11/20 10:15:19;;;;;;;10.63;2.77;;;12.00;99.90;;;;;;5031043;28;20423;-68
2023/11/20 10:17:47;;;;;;;6.00;2.60;;;11.90;99.90;;;;;;5048690;28;20432;-68
2023/11/20 10:20:15;;;;;;;12.67;3.57;;;11.90;99.90;;;;;;5033332;28;20436;-67
2023/11/20 10:22:40;;;;;;;10.10;2.90;;;11.90;99.90;;;;;;5047085;28;20285;-68
2023/11/20 10:25:08;;;;;;;9.97;2.50;;;11.90;99.90;;;;;;5033081;28;20447;-68
2023/11/20 10:27:34;;;;;;;4.60;2.00;;;11.80;99.90;;;;;;5033630;28;20425;-68
2023/11/20 10:30:00;;;;;;;3.70;2.27;;;11.80;99.90;;;;;;5021041;28;20749;-68
2023/11/20 10:32:27;;;;;;;9.47;2.57;;;11.70;99.90;;;;;;5032279;28;20476;-68
2023/11/20 10:35:14;;;;;;;8.73;2.87;;;11.60;99.90;;;;;;5031362;28;20431;-68
2023/11/20 10:38:02;;;;;;;10.67;3.00;;;11.50;99.90;;;;;;5027964;28;20459;-67
2023/11/20 10:40:28;;;;;;;7.90;2.37;;;11.40;99.90;;;;;;5031327;28;21159;-68
2023/11/20 10:42:54;;;;;;;7.40;2.30;;;11.40;99.90;;;;;;5031673;28;20427;-68
2023/11/20 10:45:20;;;;;;;12.10;2.70;;;11.40;99.90;;;;;;5046869;28;20470;-68
2023/11/20 10:47:48;;;;;;;6.43;2.43;;;11.40;99.90;;;;;;5032458;28;20437;-68
2023/11/20 10:50:15;;;;;;;6.23;2.00;;;11.50;99.90;;;;;;5031368;28;20448;-68
2023/11/20 10:52:41;;;;;;;5.47;1.87;;;11.50;99.90;;;;;;5032615;28;20472;-67
2023/11/20 10:55:17;;;;;;;4.87;1.77;;;11.50;99.90;;;;;;5031771;28;20444;-68
2023/11/20 10:57:46;;;;;;;4.70;2.10;;;11.60;99.90;;;;;;5033235;28;20435;-68
2023/11/20 11:00:15;;;;;;;6.53;2.77;;;11.60;99.90;;;;;;5030968;28;20517;-68
2023/11/20 11:02:42;;;;;;;5.90;2.67;;;11.70;99.90;;;;;;5033516;28;20481;-68
2023/11/20 11:05:10;;;;;;;7.63;2.50;;;11.60;99.90;;;;;;5031691;28;20648;-68
2023/11/20 11:07:46;;;;;;;3.93;1.93;;;11.70;99.90;;;;;;5033779;28;20840;-68
2023/11/20 11:10:14;;;;;;;6.40;2.50;;;11.70;99.90;;;;;;5034985;28;20930;-67
2023/11/20 11:12:45;;;;;;;8.23;3.07;;;11.60;99.90;;;;;;5034140;28;20509;-68
2023/11/20 11:15:13;;;;;;;4.70;2.60;;;11.60;99.90;;;;;;5030522;28;20506;-68
2023/11/20 11:17:48;;;;;;;4.67;2.30;;;11.70;99.90;;;;;;5053733;28;21214;-68
2023/11/20 11:20:18;;;;;;;5.63;2.20;;;11.70;99.90;;;;;;5031350;28;20465;-68
2023/11/20 11:23:07;;;;;;;13.87;2.17;;;11.60;99.90;;;;;;5032026;28;20464;-68
2023/11/20 11:25:38;;;;;;;7.40;2.00;;;11.50;99.90;;;;;;5031341;28;20460;-67
2023/11/20 11:28:07;;;;;;;4.87;1.90;;;11.60;99.90;;;;;;5031466;28;20435;-68
2023/11/20 11:30:37;;;;;;;7.13;2.20;;;11.50;99.90;;;;;;5031288;28;20416;-67
2023/11/20 11:33:15;;;;;;;4.43;1.67;;;11.50;99.90;;;;;;5031457;28;20465;-67
2023/11/20 11:36:02;;;;;;;13.63;5.20;;;11.50;99.90;;;;;;5031941;28;20420;-68
2023/11/20 11:38:50;;;;;;;10.50;2.37;;;11.50;99.90;;;;;;5029378;28;20954;-68
2023/11/20 11:41:59;;;;;;;6.83;2.10;;;11.50;99.90;;;;;;5031341;28;20530;-68
2023/11/20 11:44:55;;;;;;;6.37;1.70;;;11.50;99.90;;;;;;5024060;28;20914;-68
2023/11/20 11:47:22;;;;;;;8.00;2.27;;;11.50;99.90;;;;;;5031180;28;20428;-68
2023/11/20 11:49:48;;;;;;;4.13;1.80;;;11.50;99.90;;;;;;5031572;28;20882;-67
2023/11/20 11:52:19;;;;;;;4.77;2.13;;;11.60;99.90;;;;;;5030280;28;20742;-68
2023/11/20 11:54:44;;;;;;;5.80;1.87;;;11.60;99.90;;;;;;5030668;28;20429;-67
2023/11/20 11:57:20;;;;;;;4.17;2.10;;;11.70;99.90;;;;;;5030709;28;20925;-68
2023/11/20 11:59:46;;;;;;;7.80;2.30;;;11.60;99.90;;;;;;5032135;28;20193;-68
2023/11/20 12:02:17;;;;;;;4.53;2.20;;;11.70;99.90;;;;;;5030428;28;20425;-68
2023/11/20 12:04:54;;;;;;;4.93;1.87;;;11.70;99.90;;;;;;5031846;28;20507;-68
2023/11/20 12:07:40;;;;;;;6.23;2.03;;;11.70;99.90;;;;;;5029783;28;21240;-68
2023/11/20 12:10:10;;;;;;;6.87;2.37;;;11.70;99.90;;;;;;5042804;28;20918;-68
2023/11/20 12:12:46;;;;;;;3.37;1.87;;;11.60;99.90;;;;;;5031357;28;21037;-68
2023/11/20 12:15:30;;;;;;;5.47;2.67;;;11.60;99.90;;;;;;5030593;28;20797;-69
2023/11/20 12:18:00;;;;;;;5.33;1.60;;;11.60;99.90;;;;;;5032004;28;20463;-67
2023/11/20 12:20:26;;;;;;;3.90;1.70;;;11.60;99.90;;;;;;5030586;28;20424;-68
2023/11/20 12:22:52;;;;;;;5.00;2.00;;;11.60;99.90;;;;;;5030930;28;20455;-68
2023/11/20 12:25:19;;;;;;;4.07;1.90;;;11.70;99.90;;;;;;5030174;28;20494;-68
2023/11/20 12:27:46;;;;;;;7.13;2.40;;;11.70;99.90;;;;;;5031989;28;20437;-67
2023/11/20 12:30:12;;;;;;;6.57;1.90;;;11.60;99.90;;;;;;5030619;28;20494;-68
2023/11/20 12:32:38;;;;;;;3.87;1.80;;;11.60;99.90;;;;;;5030184;28;20491;-68
2023/11/20 12:35:05;;;;;;;5.37;1.77;;;11.60;99.90;;;;;;5030214;28;20961;-68
2023/11/20 12:37:32;;;;;;;4.80;2.17;;;11.50;99.90;;;;;;5029102;28;20429;-68
2023/11/20 12:39:58;;;;;;;2.00;1.33;;;11.60;99.90;;;;;;5037824;28;20439;-69
2023/11/20 12:42:28;;;;;;;5.67;2.30;;;11.60;99.90;;;;;;5030328;28;20451;-69
2023/11/20 12:44:54;;;;;;;4.20;2.10;;;11.70;99.90;;;;;;5030773;28;20539;-68
2023/11/20 12:47:20;;;;;;;4.90;1.77;;;11.70;99.90;;;;;;5029213;28;20538;-69